createdAt,value
2018-06-19T00:00:47.746Z,99.99
2018-06-19T00:01:47.743Z,99.99
2018-06-19T00:02:47.743Z,99.99
2018-06-19T00:03:47.769Z,99.99
2018-06-19T00:04:47.746Z,99.99
2018-06-19T00:05:47.741Z,99.99
2018-06-19T00:06:47.740Z,99.99
2018-06-19T00:07:47.741Z,99.99
2018-06-19T00:08:47.736Z,99.99
2018-06-19T00:09:47.738Z,99.99
2018-06-19T00:10:47.737Z,99.99
2018-06-19T00:11:47.735Z,99.99
2018-06-19T00:12:47.735Z,99.99
2018-06-19T00:13:47.735Z,99.99
2018-06-19T00:14:47.732Z,99.99
2018-06-19T00:15:47.734Z,99.99
2018-06-19T00:16:47.730Z,99.99
2018-06-19T00:17:47.731Z,99.99
2018-06-19T00:18:47.730Z,99.99
2018-06-19T00:19:47.731Z,99.99
2018-06-19T00:20:47.728Z,99.99
2018-06-19T00:21:47.730Z,99.99
2018-06-19T00:22:47.731Z,99.99
2018-06-19T00:23:47.725Z,99.99
2018-06-19T00:24:47.723Z,99.99
2018-06-19T00:25:47.723Z,99.99
2018-06-19T00:26:47.725Z,99.99
2018-06-19T00:27:47.722Z,99.99
2018-06-19T00:28:47.720Z,99.99
2018-06-19T00:29:47.721Z,99.99
2018-06-19T00:30:47.721Z,99.99
2018-06-19T00:31:47.735Z,99.99
2018-06-19T00:32:47.717Z,99.99
2018-06-19T00:33:47.719Z,99.99
2018-06-19T00:34:47.716Z,99.99
2018-06-19T00:35:47.714Z,99.99
2018-06-19T00:36:47.711Z,99.99
2018-06-19T00:37:47.713Z,99.99
2018-06-19T00:38:47.714Z,99.99
2018-06-19T00:39:47.710Z,99.99
2018-06-19T00:40:47.711Z,99.99
2018-06-19T00:41:47.708Z,99.99
2018-06-19T00:42:47.707Z,99.99
2018-06-19T00:43:47.707Z,99.99
2018-06-19T00:44:47.704Z,99.99
2018-06-19T00:45:47.726Z,99.99
2018-06-19T00:46:47.709Z,99.99
2018-06-19T00:47:47.706Z,99.99
2018-06-19T00:48:47.700Z,99.99
2018-06-19T00:49:47.702Z,99.99
2018-06-19T00:50:47.701Z,99.99
2018-06-19T00:51:47.700Z,99.99
2018-06-19T00:52:47.697Z,99.99
2018-06-19T00:53:47.697Z,99.99
2018-06-19T00:54:47.695Z,99.99
2018-06-19T00:55:47.695Z,99.99
2018-06-19T00:56:47.696Z,99.99
2018-06-19T00:57:47.697Z,99.99
2018-06-19T00:58:47.697Z,99.99
2018-06-19T00:59:47.694Z,99.99
2018-06-19T01:00:47.691Z,99.99
2018-06-19T01:01:47.691Z,99.99
2018-06-19T01:02:47.688Z,99.99
2018-06-19T01:03:47.689Z,99.99
2018-06-19T01:04:47.687Z,99.99
2018-06-19T01:05:47.684Z,99.99
2018-06-19T01:06:47.685Z,99.99
2018-06-19T01:07:47.684Z,99.99
2018-06-19T01:08:47.682Z,99.99
2018-06-19T01:09:47.681Z,99.99
2018-06-19T01:10:47.681Z,99.99
2018-06-19T01:11:47.679Z,99.99
2018-06-19T01:12:47.680Z,99.99
2018-06-19T01:13:47.677Z,99.99
2018-06-19T01:14:47.677Z,99.99
2018-06-19T01:15:47.677Z,99.99
2018-06-19T01:16:47.675Z,99.99
2018-06-19T01:17:47.674Z,99.99
2018-06-19T01:18:47.676Z,99.99
2018-06-19T01:19:47.673Z,99.99
2018-06-19T01:20:47.669Z,99.99
2018-06-19T01:21:47.672Z,99.99
2018-06-19T01:22:47.668Z,99.99
2018-06-19T01:23:47.667Z,99.99
2018-06-19T01:24:47.666Z,99.99
2018-06-19T01:25:47.667Z,99.99
2018-06-19T01:26:47.666Z,99.99
2018-06-19T01:27:47.663Z,99.99
2018-06-19T01:28:47.663Z,99.99
2018-06-19T01:29:47.660Z,99.99
2018-06-19T01:30:47.658Z,99.99
2018-06-19T01:31:47.661Z,99.99
2018-06-19T01:32:47.657Z,99.99
2018-06-19T01:33:47.655Z,99.99
2018-06-19T01:34:47.656Z,99.99
2018-06-19T01:35:47.654Z,99.99
2018-06-19T01:36:47.653Z,99.99
2018-06-19T01:37:47.650Z,99.99
2018-06-19T01:38:47.650Z,99.99
2018-06-19T01:39:47.648Z,99.99
2018-06-19T01:40:47.647Z,99.99
2018-06-19T01:41:47.648Z,99.99
2018-06-19T01:42:47.644Z,99.99
2018-06-19T01:43:47.644Z,99.99
2018-06-19T01:44:47.640Z,99.99
2018-06-19T01:45:47.640Z,99.99
2018-06-19T01:46:47.639Z,99.99
2018-06-19T01:47:47.638Z,99.99
2018-06-19T01:48:47.636Z,99.99
2018-06-19T01:49:47.634Z,99.99
2018-06-19T01:50:47.634Z,99.99
2018-06-19T01:51:47.632Z,99.99
2018-06-19T01:52:47.630Z,99.99
2018-06-19T01:53:47.629Z,99.99
2018-06-19T01:54:47.636Z,99.99
2018-06-19T01:55:47.628Z,99.99
2018-06-19T01:56:47.625Z,99.99
2018-06-19T01:57:47.623Z,99.99
2018-06-19T01:58:47.622Z,99.99
2018-06-19T01:59:47.622Z,99.99
2018-06-19T02:00:47.620Z,99.99
2018-06-19T02:01:47.618Z,99.99
2018-06-19T02:02:47.617Z,99.99
2018-06-19T02:03:47.617Z,99.99
2018-06-19T02:04:47.615Z,99.99
2018-06-19T02:05:47.614Z,99.99
2018-06-19T02:06:47.610Z,99.99
2018-06-19T02:07:47.610Z,99.99
2018-06-19T02:08:47.608Z,99.99
2018-06-19T02:09:47.608Z,99.99
2018-06-19T02:10:47.609Z,99.99
2018-06-19T02:11:47.607Z,99.99
2018-06-19T02:12:47.602Z,99.99
2018-06-19T02:13:47.603Z,99.99
2018-06-19T02:14:47.599Z,99.99
2018-06-19T02:15:47.602Z,99.99
2018-06-19T02:16:47.598Z,99.99
2018-06-19T02:17:47.596Z,99.99
2018-06-19T02:18:47.597Z,99.99
2018-06-19T02:19:47.595Z,99.99
2018-06-19T02:20:47.594Z,99.99
2018-06-19T02:21:47.593Z,99.99
2018-06-19T02:22:47.592Z,99.99
2018-06-19T02:23:47.588Z,99.99
2018-06-19T02:24:47.589Z,99.99
2018-06-19T02:25:47.587Z,99.99
2018-06-19T02:26:47.587Z,99.99
2018-06-19T02:27:47.584Z,99.99
2018-06-19T02:28:47.583Z,99.99
2018-06-19T02:29:47.580Z,99.99
2018-06-19T02:30:47.579Z,99.99
2018-06-19T02:31:47.580Z,99.99
2018-06-19T02:32:47.578Z,99.99
2018-06-19T02:33:47.576Z,99.99
2018-06-19T02:34:47.573Z,99.99
2018-06-19T02:35:47.575Z,99.99
2018-06-19T02:36:47.572Z,99.99
2018-06-19T02:37:47.572Z,99.99
2018-06-19T02:38:47.572Z,99.99
2018-06-19T02:39:47.568Z,99.99
2018-06-19T02:40:47.573Z,99.99
2018-06-19T02:41:47.567Z,99.99
2018-06-19T02:42:47.565Z,99.99
2018-06-19T02:43:47.571Z,99.99
2018-06-19T02:44:47.562Z,99.99
2018-06-19T02:45:47.565Z,99.99
2018-06-19T02:46:47.561Z,99.99
2018-06-19T02:47:47.559Z,99.99
2018-06-19T02:48:47.557Z,99.99
2018-06-19T02:49:47.554Z,99.99
2018-06-19T02:50:47.552Z,99.99
2018-06-19T02:51:47.550Z,99.99
2018-06-19T02:52:47.550Z,99.99
2018-06-19T02:53:47.552Z,99.99
2018-06-19T02:54:47.551Z,99.99
2018-06-19T02:55:47.554Z,99.99
2018-06-19T02:56:47.543Z,99.99
2018-06-19T02:57:47.561Z,99.99
2018-06-19T02:58:47.541Z,99.99
2018-06-19T02:59:47.545Z,99.99
2018-06-19T03:00:47.537Z,99.99
2018-06-19T03:01:47.536Z,99.99
2018-06-19T03:02:47.538Z,99.99
2018-06-19T03:03:47.534Z,99.99
2018-06-19T03:04:47.532Z,99.99
2018-06-19T03:05:47.534Z,99.99
2018-06-19T03:06:47.528Z,99.99
2018-06-19T03:07:47.526Z,99.99
2018-06-19T03:08:47.525Z,99.99
2018-06-19T03:09:47.524Z,99.99
2018-06-19T03:10:47.521Z,99.99
2018-06-19T03:11:47.521Z,99.99
2018-06-19T03:12:47.523Z,99.99
2018-06-19T03:13:47.518Z,99.99
2018-06-19T03:14:47.517Z,99.99
2018-06-19T03:15:47.515Z,99.99
2018-06-19T03:16:47.512Z,99.99
2018-06-19T03:17:47.511Z,99.99
2018-06-19T03:18:47.510Z,99.99
2018-06-19T03:19:47.512Z,99.99
2018-06-19T03:20:47.506Z,99.99
2018-06-19T03:21:47.518Z,99.99
2018-06-19T03:22:47.504Z,99.99
2018-06-19T03:23:47.513Z,99.99
2018-06-19T03:24:47.499Z,99.99
2018-06-19T03:25:47.499Z,99.99
2018-06-19T03:26:47.501Z,99.99
2018-06-19T03:27:47.497Z,99.99
2018-06-19T03:28:47.492Z,99.99
2018-06-19T03:29:47.492Z,99.99
2018-06-19T03:30:47.493Z,99.99
2018-06-19T03:31:47.493Z,99.99
2018-06-19T03:32:47.495Z,99.99
2018-06-19T03:33:47.487Z,99.99
2018-06-19T03:34:47.488Z,99.99
2018-06-19T03:35:47.483Z,99.99
2018-06-19T03:36:47.481Z,99.99
2018-06-19T03:37:47.481Z,99.99
2018-06-19T03:38:47.479Z,99.99
2018-06-19T03:39:47.477Z,99.99
2018-06-19T03:40:47.474Z,99.99
2018-06-19T03:41:47.479Z,99.99
2018-06-19T03:42:47.473Z,99.99
2018-06-19T03:43:47.470Z,99.99
2018-06-19T03:44:47.469Z,99.99
2018-06-19T03:45:47.466Z,99.99
2018-06-19T03:46:47.466Z,99.99
2018-06-19T03:47:47.465Z,99.99
2018-06-19T03:48:47.463Z,99.99
2018-06-19T03:49:47.460Z,99.99
2018-06-19T03:50:47.460Z,99.99
2018-06-19T03:51:47.458Z,99.99
2018-06-19T03:52:47.454Z,99.99
2018-06-19T03:53:47.474Z,99.99
2018-06-19T03:54:47.454Z,99.99
2018-06-19T03:55:47.451Z,99.99
2018-06-19T03:56:47.447Z,99.99
2018-06-19T03:57:47.446Z,99.99
2018-06-19T03:58:47.445Z,99.99
2018-06-19T03:59:47.444Z,99.99
2018-06-19T04:00:47.441Z,99.99
2018-06-19T04:01:47.440Z,99.99
2018-06-19T04:02:47.437Z,99.99
2018-06-19T04:03:47.438Z,99.99
2018-06-19T04:04:47.435Z,99.99
2018-06-19T04:05:47.441Z,99.99
2018-06-19T04:06:47.430Z,99.99
2018-06-19T04:07:47.431Z,99.99
2018-06-19T04:08:47.423Z,99.99
2018-06-19T04:09:47.425Z,99.99
2018-06-19T04:10:47.425Z,99.99
2018-06-19T04:11:47.423Z,99.99
2018-06-19T04:12:47.419Z,99.99
2018-06-19T04:13:47.419Z,99.99
2018-06-19T04:14:47.419Z,99.99
2018-06-19T04:15:47.415Z,99.99
2018-06-19T04:16:47.412Z,99.99
2018-06-19T04:17:47.411Z,99.99
2018-06-19T04:18:47.410Z,99.99
2018-06-19T04:19:47.409Z,99.99
2018-06-19T04:20:47.406Z,99.99
2018-06-19T04:21:47.406Z,99.99
2018-06-19T04:22:47.404Z,99.99
2018-06-19T04:23:47.402Z,99.99
2018-06-19T04:24:47.403Z,99.99
2018-06-19T04:25:47.398Z,99.99
2018-06-19T04:26:47.397Z,99.99
2018-06-19T04:27:47.395Z,99.99
2018-06-19T04:28:47.392Z,99.99
2018-06-19T04:29:47.392Z,99.99
2018-06-19T04:30:47.391Z,99.99
2018-06-19T04:31:47.388Z,99.99
2018-06-19T04:32:47.386Z,99.99
2018-06-19T04:33:47.385Z,99.99
2018-06-19T04:34:47.380Z,99.99
2018-06-19T04:35:47.383Z,99.99
2018-06-19T04:36:47.380Z,99.99
2018-06-19T04:37:47.379Z,99.99
2018-06-19T04:38:47.377Z,99.99
2018-06-19T04:39:47.376Z,99.99
2018-06-19T04:40:47.374Z,99.99
2018-06-19T04:41:47.372Z,99.99
2018-06-19T04:42:47.369Z,99.99
2018-06-19T04:43:47.381Z,99.99
2018-06-19T04:44:47.375Z,99.99
2018-06-19T04:45:47.367Z,99.99
2018-06-19T04:46:47.364Z,99.99
2018-06-19T04:47:47.362Z,99.99
2018-06-19T04:48:47.360Z,99.99
2018-06-19T04:49:47.412Z,99.99
2018-06-19T04:50:47.358Z,99.99
2018-06-19T04:51:47.358Z,99.99
2018-06-19T04:52:47.355Z,99.99
2018-06-19T04:53:47.357Z,99.99
2018-06-19T04:54:47.357Z,99.99
2018-06-19T04:55:47.352Z,99.99
2018-06-19T04:56:47.348Z,99.99
2018-06-19T04:57:47.347Z,99.99
2018-06-19T04:58:47.343Z,99.99
2018-06-19T04:59:47.349Z,99.99
2018-06-19T05:00:47.341Z,99.99
2018-06-19T05:01:47.343Z,99.99
2018-06-19T05:02:47.340Z,99.99
2018-06-19T05:03:47.397Z,99.99
2018-06-19T05:04:47.337Z,99.99
2018-06-19T05:05:47.334Z,99.99
2018-06-19T05:06:47.333Z,99.99
2018-06-19T05:07:47.332Z,99.99
2018-06-19T05:08:47.331Z,99.99
2018-06-19T05:09:47.332Z,99.99
2018-06-19T05:10:47.329Z,99.99
2018-06-19T05:11:47.325Z,99.99
2018-06-19T05:12:47.382Z,99.99
2018-06-19T05:13:47.323Z,99.99
2018-06-19T05:14:47.322Z,99.99
2018-06-19T05:15:47.320Z,99.99
2018-06-19T05:16:47.319Z,99.99
2018-06-19T05:17:47.317Z,99.99
2018-06-19T05:18:47.316Z,99.99
2018-06-19T05:19:47.315Z,99.99
2018-06-19T05:20:47.312Z,99.99
2018-06-19T05:21:47.311Z,99.99
2018-06-19T05:22:47.309Z,99.99
2018-06-19T05:23:47.315Z,99.99
2018-06-19T05:24:47.309Z,99.99
2018-06-19T05:25:47.306Z,99.99
2018-06-19T05:26:47.303Z,99.99
2018-06-19T05:27:47.304Z,99.99
2018-06-19T05:28:47.301Z,99.99
2018-06-19T05:29:47.300Z,99.99
2018-06-19T05:30:47.300Z,99.99
2018-06-19T05:31:47.299Z,99.99
2018-06-19T05:32:47.296Z,99.99
2018-06-19T05:33:47.295Z,99.99
2018-06-19T05:34:47.295Z,99.99
2018-06-19T05:35:47.296Z,99.99
2018-06-19T05:36:47.292Z,99.99
2018-06-19T05:37:47.290Z,99.99
2018-06-19T05:38:47.289Z,99.99
2018-06-19T05:39:47.288Z,99.99
2018-06-19T05:40:47.284Z,99.99
2018-06-19T05:41:47.283Z,99.99
2018-06-19T05:42:47.283Z,99.99
2018-06-19T05:43:47.282Z,99.99
2018-06-19T05:44:47.281Z,99.99
2018-06-19T05:45:47.280Z,99.99
2018-06-19T05:46:47.280Z,99.99
2018-06-19T05:47:47.279Z,99.99
2018-06-19T05:48:47.275Z,99.99
2018-06-19T05:49:47.278Z,99.99
2018-06-19T05:50:47.276Z,99.99
2018-06-19T05:51:47.274Z,99.99
2018-06-19T05:52:47.287Z,99.99
2018-06-19T05:53:47.271Z,99.99
2018-06-19T05:54:47.272Z,99.99
2018-06-19T05:55:47.272Z,99.99
2018-06-19T05:56:47.270Z,99.99
2018-06-19T05:57:47.268Z,99.99
2018-06-19T05:58:47.269Z,99.99
2018-06-19T05:59:47.265Z,99.99
2018-06-19T06:00:47.266Z,99.99
2018-06-19T06:01:47.265Z,99.99
2018-06-19T06:02:47.263Z,99.99
2018-06-19T06:03:47.263Z,99.99
2018-06-19T06:04:47.261Z,99.99
2018-06-19T06:05:47.328Z,99.99
2018-06-19T06:06:47.261Z,98.96
2018-06-19T06:07:47.259Z,98.77
2018-06-19T06:08:47.262Z,98.49
2018-06-19T06:09:47.256Z,97.52
2018-06-19T06:10:47.258Z,98.49
2018-06-19T06:11:47.256Z,96.47
2018-06-19T06:12:47.253Z,95.21
2018-06-19T06:13:47.252Z,94.87
2018-06-19T06:14:47.252Z,95.21
2018-06-19T06:15:47.252Z,94.64
2018-06-19T06:16:47.250Z,96.12
2018-06-19T06:17:47.248Z,95.84
2018-06-19T06:18:47.249Z,94.78
2018-06-19T06:19:47.252Z,95.17
2018-06-19T06:20:47.245Z,94.78
2018-06-19T06:21:47.247Z,94.78
2018-06-19T06:22:47.246Z,94.20
2018-06-19T06:23:47.246Z,94.59
2018-06-19T06:24:47.243Z,94.97
2018-06-19T06:25:47.244Z,93.33
2018-06-19T06:26:47.242Z,93.24
2018-06-19T06:27:47.244Z,93.53
2018-06-19T06:28:47.240Z,93.91
2018-06-19T06:29:47.241Z,93.82
2018-06-19T06:30:47.240Z,93.33
2018-06-19T06:31:47.238Z,93.33
2018-06-19T06:32:47.237Z,93.05
2018-06-19T06:33:47.236Z,93.15
2018-06-19T06:34:47.236Z,92.57
2018-06-19T06:35:47.235Z,93.62
2018-06-19T06:36:47.236Z,93.33
2018-06-19T06:37:47.232Z,92.08
2018-06-19T06:38:47.234Z,92.47
2018-06-19T06:39:47.231Z,92.22
2018-06-19T06:40:47.230Z,92.03
2018-06-19T06:41:47.228Z,93.09
2018-06-19T06:42:47.229Z,91.65
2018-06-19T06:43:47.229Z,89.82
2018-06-19T06:44:47.231Z,90.78
2018-06-19T06:45:47.228Z,89.15
2018-06-19T06:46:47.228Z,89.63
2018-06-19T06:47:47.226Z,89.34
2018-06-19T06:48:47.228Z,89.53
2018-06-19T06:49:47.224Z,89.53
2018-06-19T06:50:47.224Z,89.67
2018-06-19T06:51:47.223Z,89.72
2018-06-19T06:52:47.222Z,89.86
2018-06-19T06:53:47.221Z,89.58
2018-06-19T06:54:47.222Z,87.65
2018-06-19T06:55:47.220Z,88.28
2018-06-19T06:56:47.220Z,88.09
2018-06-19T06:57:47.217Z,88.38
2018-06-19T06:58:47.219Z,89.53
2018-06-19T06:59:47.216Z,88.90
2018-06-19T07:00:47.217Z,88.32
2018-06-19T07:01:47.217Z,88.51
2018-06-19T07:02:47.229Z,88.67
2018-06-19T07:03:47.215Z,88.61
2018-06-19T07:04:47.215Z,89.00
2018-06-19T07:05:47.217Z,88.51
2018-06-19T07:06:47.213Z,87.94
2018-06-19T07:07:47.226Z,88.04
2018-06-19T07:08:47.213Z,87.46
2018-06-19T07:09:47.211Z,86.98
2018-06-19T07:10:47.212Z,86.59
2018-06-19T07:11:47.215Z,85.91
2018-06-19T07:12:47.209Z,86.98
2018-06-19T07:13:47.211Z,86.45
2018-06-19T07:14:47.212Z,87.46
2018-06-19T07:15:47.243Z,87.46
2018-06-19T07:16:47.208Z,87.46
2018-06-19T07:17:47.208Z,86.21
2018-06-19T07:18:47.208Z,86.01
2018-06-19T07:19:47.210Z,86.11
2018-06-19T07:20:47.206Z,86.01
2018-06-19T07:21:47.209Z,86.49
2018-06-19T07:22:47.204Z,86.21
2018-06-19T07:23:47.207Z,86.88
2018-06-19T07:24:47.205Z,86.88
2018-06-19T07:25:47.218Z,86.69
2018-06-19T07:26:47.203Z,86.78
2018-06-19T07:27:47.203Z,85.53
2018-06-19T07:28:47.203Z,86.98
2018-06-19T07:29:47.204Z,87.21
2018-06-19T07:30:47.219Z,85.96
2018-06-19T07:31:47.204Z,85.38
2018-06-19T07:32:47.201Z,86.05
2018-06-19T07:33:47.202Z,85.47
2018-06-19T07:34:47.202Z,86.35
2018-06-19T07:35:47.199Z,86.25
2018-06-19T07:36:47.234Z,85.96
2018-06-19T07:37:47.247Z,86.15
2018-06-19T07:38:47.199Z,85.77
2018-06-19T07:39:47.203Z,86.35
2018-06-19T07:40:47.199Z,86.15
2018-06-19T07:41:47.199Z,86.35
2018-06-19T07:42:47.197Z,86.63
2018-06-19T07:43:47.222Z,85.09
2018-06-19T07:44:47.199Z,85.67
2018-06-19T07:45:47.201Z,85.77
2018-06-19T07:46:47.199Z,86.44
2018-06-19T07:47:47.197Z,87.60
2018-06-19T07:48:47.196Z,85.77
2018-06-19T07:49:47.198Z,85.42
2018-06-19T07:50:47.199Z,82.49
2018-06-19T07:51:47.202Z,83.07
2018-06-19T07:52:47.196Z,84.32
2018-06-19T07:53:47.196Z,83.78
2018-06-19T07:54:47.195Z,83.78
2018-06-19T07:55:47.193Z,83.59
2018-06-19T07:56:47.196Z,83.20
2018-06-19T07:57:47.195Z,83.78
2018-06-19T07:58:47.195Z,83.78
2018-06-19T07:59:47.196Z,83.50
2018-06-19T08:00:47.194Z,84.17
2018-06-19T08:01:47.201Z,83.78
2018-06-19T08:02:47.195Z,83.20
2018-06-19T08:03:47.198Z,83.25
2018-06-19T08:04:47.195Z,83.53
2018-06-19T08:05:47.197Z,82.67
2018-06-19T08:06:47.197Z,83.05
2018-06-19T08:07:47.197Z,81.51
2018-06-19T08:08:47.196Z,81.70
2018-06-19T08:09:47.198Z,82.24
2018-06-19T08:10:47.196Z,82.24
2018-06-19T08:11:47.198Z,83.30
2018-06-19T08:12:47.198Z,83.34
2018-06-19T08:13:47.197Z,81.41
2018-06-19T08:14:47.201Z,82.38
2018-06-19T08:15:47.198Z,82.67
2018-06-19T08:16:47.199Z,82.38
2018-06-19T08:17:47.201Z,81.51
2018-06-19T08:18:47.230Z,82.38
2018-06-19T08:19:47.201Z,81.90
2018-06-19T08:20:47.201Z,82.23
2018-06-19T08:21:47.201Z,81.55
2018-06-19T08:22:47.246Z,81.55
2018-06-19T08:23:47.204Z,82.32
2018-06-19T08:24:47.197Z,82.46
2018-06-19T08:25:47.205Z,81.01
2018-06-19T08:26:47.205Z,79.72
2018-06-19T08:27:47.208Z,80.20
2018-06-19T08:28:47.719Z,79.91
2018-06-19T08:29:47.209Z,80.20
2018-06-19T08:30:47.220Z,80.93
2018-06-19T08:31:47.214Z,80.30
2018-06-19T08:32:47.213Z,80.20
2018-06-19T08:33:47.213Z,79.62
2018-06-19T08:34:47.214Z,80.43
2018-06-19T08:35:47.215Z,78.27
2018-06-19T08:36:47.217Z,78.46
2018-06-19T08:37:47.220Z,79.81
2018-06-19T08:38:47.219Z,80.35
2018-06-19T08:39:47.221Z,80.45
2018-06-19T08:40:47.226Z,80.35
2018-06-19T08:41:47.231Z,81.35
2018-06-19T08:42:47.230Z,81.07
2018-06-19T08:43:47.224Z,80.97
2018-06-19T08:44:47.224Z,80.24
2018-06-19T08:45:47.226Z,79.33
2018-06-19T08:46:47.231Z,79.72
2018-06-19T08:47:47.229Z,78.66
2018-06-19T08:48:47.233Z,78.66
2018-06-19T08:49:47.230Z,78.75
2018-06-19T08:50:47.234Z,80.30
2018-06-19T08:51:47.234Z,78.75
2018-06-19T08:52:47.234Z,80.10
2018-06-19T08:53:47.238Z,80.00
2018-06-19T08:54:47.239Z,80.58
2018-06-19T08:55:47.239Z,79.81
2018-06-19T08:56:47.239Z,80.20
2018-06-19T08:57:47.240Z,78.94
2018-06-19T08:58:47.243Z,79.81
2018-06-19T08:59:47.247Z,79.62
2018-06-19T09:00:47.248Z,80.30
2018-06-19T09:01:47.252Z,78.99
2018-06-19T09:02:47.248Z,79.72
2018-06-19T09:03:47.251Z,78.27
2018-06-19T09:04:47.249Z,77.53
2018-06-19T09:05:47.252Z,78.31
2018-06-19T09:06:47.254Z,77.63
2018-06-19T09:07:47.255Z,79.27
2018-06-19T09:08:47.258Z,78.50
2018-06-19T09:09:47.260Z,77.34
2018-06-19T09:10:47.260Z,77.15
2018-06-19T09:11:47.268Z,77.34
2018-06-19T09:12:47.263Z,78.50
2018-06-19T09:13:47.267Z,78.21
2018-06-19T09:14:47.268Z,77.73
2018-06-19T09:15:47.269Z,79.37
2018-06-19T09:16:47.270Z,78.41
2018-06-19T09:17:47.272Z,78.31
2018-06-19T09:18:47.280Z,79.24
2018-06-19T09:19:47.277Z,79.04
2018-06-19T09:20:47.279Z,78.66
2018-06-19T09:21:47.290Z,78.85
2018-06-19T09:22:47.281Z,79.91
2018-06-19T09:23:47.289Z,79.72
2018-06-19T09:24:47.285Z,80.06
2018-06-19T09:25:47.288Z,80.58
2018-06-19T09:26:47.288Z,79.81
2018-06-19T09:27:47.291Z,79.52
2018-06-19T09:28:47.291Z,80.30
2018-06-19T09:29:47.294Z,81.32
2018-06-19T09:30:47.293Z,82.28
2018-06-19T09:31:47.299Z,81.70
2018-06-19T09:32:47.298Z,81.90
2018-06-19T09:33:47.298Z,81.60
2018-06-19T09:34:47.300Z,81.51
2018-06-19T09:35:47.299Z,81.80
2018-06-19T09:36:47.303Z,82.76
2018-06-19T09:37:47.302Z,81.80
2018-06-19T09:38:47.303Z,81.80
2018-06-19T09:39:47.359Z,83.73
2018-06-19T09:40:47.306Z,82.86
2018-06-19T09:41:47.313Z,82.76
2018-06-19T09:42:47.309Z,82.48
2018-06-19T09:43:47.311Z,82.76
2018-06-19T09:44:47.311Z,81.90
2018-06-19T09:45:47.314Z,82.48
2018-06-19T09:46:47.315Z,81.70
2018-06-19T09:47:47.313Z,82.09
2018-06-19T09:48:47.315Z,82.28
2018-06-19T09:49:47.318Z,82.51
2018-06-19T09:50:47.317Z,81.55
2018-06-19T09:51:47.323Z,81.35
2018-06-19T09:52:47.320Z,81.51
2018-06-19T09:53:47.338Z,81.90
2018-06-19T09:54:47.326Z,82.48
2018-06-19T09:55:47.331Z,82.57
2018-06-19T09:56:47.327Z,81.35
2018-06-19T09:57:47.326Z,81.90
2018-06-19T09:58:47.327Z,82.81
2018-06-19T09:59:47.335Z,81.60
2018-06-19T10:00:47.331Z,80.78
2018-06-19T10:01:47.334Z,81.55
2018-06-19T10:02:47.332Z,82.90
2018-06-19T10:03:47.336Z,80.39
2018-06-19T10:04:47.337Z,80.78
2018-06-19T10:05:47.381Z,80.10
2018-06-19T10:06:47.342Z,81.07
2018-06-19T10:07:47.343Z,80.97
2018-06-19T10:08:47.344Z,80.10
2018-06-19T10:09:47.349Z,80.58
2018-06-19T10:10:47.346Z,80.78
2018-06-19T10:11:47.350Z,81.35
2018-06-19T10:12:47.349Z,80.78
2018-06-19T10:13:47.350Z,80.00
2018-06-19T10:14:47.353Z,80.87
2018-06-19T10:15:47.356Z,81.07
2018-06-19T10:16:47.356Z,81.07
2018-06-19T10:17:47.357Z,80.91
2018-06-19T10:18:47.359Z,79.47
2018-06-19T10:19:47.361Z,80.14
2018-06-19T10:20:47.363Z,78.69
2018-06-19T10:21:47.368Z,78.89
2018-06-19T10:22:47.367Z,79.08
2018-06-19T10:23:47.370Z,79.08
2018-06-19T10:24:47.372Z,79.66
2018-06-19T10:25:47.370Z,78.02
2018-06-19T10:26:47.374Z,79.08
2018-06-19T10:27:47.376Z,79.75
2018-06-19T10:28:47.378Z,78.99
2018-06-19T10:29:47.375Z,79.75
2018-06-19T10:30:48.198Z,79.47
2018-06-19T10:31:47.383Z,79.75
2018-06-19T10:32:47.386Z,78.66
2018-06-19T10:33:47.387Z,79.62
2018-06-19T10:34:47.392Z,80.30
2018-06-19T10:35:47.393Z,80.49
2018-06-19T10:36:47.392Z,80.39
2018-06-19T10:37:47.398Z,81.07
2018-06-19T10:38:47.398Z,80.97
2018-06-19T10:39:47.401Z,81.49
2018-06-19T10:40:47.402Z,79.66
2018-06-19T10:41:47.403Z,80.05
2018-06-19T10:42:47.407Z,78.99
2018-06-19T10:43:47.407Z,78.89
2018-06-19T10:44:47.410Z,81.11
2018-06-19T10:45:47.407Z,79.85
2018-06-19T10:46:47.412Z,79.17
2018-06-19T10:47:47.413Z,78.89
2018-06-19T10:48:47.418Z,78.31
2018-06-19T10:49:47.422Z,78.69
2018-06-19T10:50:47.422Z,78.89
2018-06-19T10:51:47.424Z,78.11
2018-06-19T10:52:47.469Z,79.27
2018-06-19T10:53:47.427Z,78.31
2018-06-19T10:54:47.430Z,77.53
2018-06-19T10:55:47.432Z,78.21
2018-06-19T10:56:47.432Z,77.15
2018-06-19T10:57:47.433Z,78.69
2018-06-19T10:58:47.437Z,78.11
2018-06-19T10:59:47.440Z,78.69
2018-06-19T11:00:47.440Z,78.83
2018-06-19T11:01:47.444Z,77.05
2018-06-19T11:02:47.446Z,78.44
2018-06-19T11:03:47.449Z,76.90
2018-06-19T11:04:47.451Z,76.80
2018-06-19T11:05:47.462Z,77.76
2018-06-19T11:06:47.454Z,77.76
2018-06-19T11:07:47.455Z,77.76
2018-06-19T11:08:47.459Z,76.70
2018-06-19T11:09:47.461Z,77.38
2018-06-19T11:10:47.463Z,76.80
2018-06-19T11:11:47.466Z,76.90
2018-06-19T11:12:47.467Z,75.35
2018-06-19T11:13:47.475Z,77.51
2018-06-19T11:14:47.473Z,75.20
2018-06-19T11:15:47.480Z,76.64
2018-06-19T11:16:47.480Z,75.52
2018-06-19T11:17:47.481Z,74.98
2018-06-19T11:18:47.483Z,74.92
2018-06-19T11:19:47.487Z,72.60
2018-06-19T11:20:47.488Z,70.70
2018-06-19T11:21:47.494Z,69.47
2018-06-19T11:22:47.498Z,72.38
2018-06-19T11:23:47.496Z,70.25
2018-06-19T11:24:47.500Z,69.92
2018-06-19T11:25:47.568Z,69.27
2018-06-19T11:26:47.507Z,68.70
2018-06-19T11:27:47.508Z,70.67
2018-06-19T11:28:47.514Z,70.61
2018-06-19T11:29:47.523Z,67.05
2018-06-19T11:30:47.517Z,66.40
2018-06-19T11:31:47.522Z,66.92
2018-06-19T11:32:47.525Z,65.30
2018-06-19T11:33:47.527Z,63.62
2018-06-19T11:34:47.533Z,63.68
2018-06-19T11:35:47.539Z,63.91
2018-06-19T11:36:47.553Z,65.79
2018-06-19T11:37:47.547Z,67.21
2018-06-19T11:38:47.548Z,68.53
2018-06-19T11:39:47.555Z,69.53
2018-06-19T11:40:47.556Z,69.92
2018-06-19T11:41:47.559Z,68.27
2018-06-19T11:42:47.568Z,69.53
2018-06-19T11:43:47.571Z,67.85
2018-06-19T11:44:47.635Z,68.33
2018-06-19T11:45:47.579Z,69.31
2018-06-19T11:46:47.582Z,69.59
2018-06-19T11:47:47.586Z,71.92
2018-06-19T11:48:47.592Z,69.11
2018-06-19T11:49:47.593Z,67.46
2018-06-19T11:50:47.602Z,67.53
2018-06-19T11:51:47.601Z,68.88
2018-06-19T11:52:47.604Z,69.56
2018-06-19T11:53:47.610Z,69.85
2018-06-19T11:54:47.615Z,70.43
2018-06-19T11:55:47.619Z,71.24
2018-06-19T11:56:47.662Z,71.34
2018-06-19T11:57:47.626Z,69.59
2018-06-19T11:58:47.633Z,68.73
2018-06-19T11:59:47.635Z,68.53
2018-06-19T12:00:47.638Z,69.98
2018-06-19T12:01:47.697Z,69.05
2018-06-19T12:02:47.648Z,69.53
2018-06-19T12:03:47.654Z,67.76
2018-06-19T12:04:47.656Z,68.82
2018-06-19T12:05:47.663Z,68.37
2018-06-19T12:06:47.684Z,66.34
2018-06-19T12:07:47.669Z,66.82
2018-06-19T12:08:47.674Z,66.63
2018-06-19T12:09:47.676Z,65.47
2018-06-19T12:10:47.681Z,66.43
2018-06-19T12:11:47.685Z,65.59
2018-06-19T12:12:47.687Z,65.37
2018-06-19T12:13:47.694Z,66.63
2018-06-19T12:14:47.699Z,66.92
2018-06-19T12:15:47.701Z,67.69
2018-06-19T12:16:47.703Z,65.66
2018-06-19T12:17:47.708Z,67.50
2018-06-19T12:18:47.712Z,68.56
2018-06-19T12:19:47.714Z,68.15
2018-06-19T12:20:47.721Z,67.56
2018-06-19T12:21:47.723Z,69.17
2018-06-19T12:22:47.728Z,70.47
2018-06-19T12:23:47.735Z,70.76
2018-06-19T12:24:47.736Z,69.89
2018-06-19T12:25:47.738Z,69.59
2018-06-19T12:26:47.743Z,69.69
2018-06-19T12:27:47.750Z,69.79
2018-06-19T12:28:47.753Z,69.69
2018-06-19T12:29:47.753Z,69.50
2018-06-19T12:30:47.759Z,68.91
2018-06-19T12:31:47.760Z,68.73
2018-06-19T12:32:47.767Z,69.21
2018-06-19T12:33:47.768Z,69.31
2018-06-19T12:34:47.771Z,68.33
2018-06-19T12:35:47.775Z,69.50
2018-06-19T12:36:47.779Z,69.53
2018-06-19T12:37:47.782Z,66.53
2018-06-19T12:38:47.787Z,69.67
2018-06-19T12:39:47.793Z,66.95
2018-06-19T12:40:47.795Z,66.56
2018-06-19T12:41:47.797Z,65.98
2018-06-19T12:42:47.802Z,65.50
2018-06-19T12:43:47.807Z,65.89
2018-06-19T12:44:47.837Z,66.60
2018-06-19T12:45:47.815Z,67.47
2018-06-19T12:46:47.849Z,66.40
2018-06-19T12:47:47.823Z,65.05
2018-06-19T12:48:47.826Z,65.82
2018-06-19T12:49:47.857Z,66.02
2018-06-19T12:50:47.836Z,65.69
2018-06-19T12:51:47.843Z,65.30
2018-06-19T12:52:47.842Z,65.59